Terminal Aerodrome Forecast
Issued by NWS

Home | Current Version | Previous Version | Text Only | Print | Product List | Glossary On
Versions: 1 2 3 4 5 6 7 8 9 10 11 12 13 14 15 16 17 18 19 20 21 22
710
FTUS42 KFFC 260523
TAFRYY
TAF
KRYY 260523Z 2606/2706 27003KT P6SM SKC
     FM261500 27010KT P6SM FEW040 SCT250
     FM270200 21006KT P6SM FEW250
      AMD NOT SKED TIL 261200=

USA.gov is the U.S. government's official web portal to all federal, state and local government web resources and services.